sensor_id;sensor_type;location;lat;lon;timestamp;pressure;altitude;pressure_sealevel;temperature;humidity
79366;BME280;68833;53.160;17.920;2023-06-10T09:26:35;101142.41;;;24.06;37.62
79366;BME280;68833;53.160;17.920;2023-06-10T09:29:06;101148.73;;;24.12;37.33
79366;BME280;68833;53.160;17.920;2023-06-10T09:31:35;101151.13;;;24.17;37.04
79366;BME280;68833;53.160;17.920;2023-06-10T09:34:10;101151.13;;;24.23;36.16
79366;BME280;68833;53.160;17.920;2023-06-10T09:36:38;101145.13;;;24.28;36.22
79366;BME280;68833;53.160;17.920;2023-06-10T09:39:04;101142.84;;;24.33;36.07
79366;BME280;68833;53.160;17.920;2023-06-10T09:41:40;101139.81;;;24.41;36.27
79366;BME280;68833;53.160;17.920;2023-06-10T09:44:14;101138.94;;;24.53;36.18
79366;BME280;68833;53.160;17.920;2023-06-10T09:46:41;101140.90;;;24.62;36.00
79366;BME280;68833;53.160;17.920;2023-06-10T09:49:08;101140.96;;;24.73;35.96
79366;BME280;68833;53.160;17.920;2023-06-10T09:51:34;101143.88;;;24.84;35.51
79366;BME280;68833;53.160;17.920;2023-06-10T09:54:04;101139.47;;;24.92;34.93
79366;BME280;68833;53.160;17.920;2023-06-10T09:56:38;101141.34;;;24.96;34.28
79366;BME280;68833;53.160;17.920;2023-06-10T09:59:08;101139.69;;;25.03;34.32
79366;BME280;68833;53.160;17.920;2023-06-10T10:03:49;101138.60;;;25.06;31.99
79366;BME280;68833;53.160;17.920;2023-06-10T10:06:18;101142.27;;;25.04;32.16
79366;BME280;68833;53.160;17.920;2023-06-10T10:08:49;101141.23;;;25.07;32.38
79366;BME280;68833;53.160;17.920;2023-06-10T10:11:18;101146.23;;;25.10;32.87
79366;BME280;68833;53.160;17.920;2023-06-10T10:13:49;101139.69;;;25.17;32.76
79366;BME280;68833;53.160;17.920;2023-06-10T10:16:23;101140.81;;;25.22;32.84
79366;BME280;68833;53.160;17.920;2023-06-10T10:18:56;101145.94;;;25.29;32.00
79366;BME280;68833;53.160;17.920;2023-06-10T10:21:27;101142.48;;;25.24;32.30
79366;BME280;68833;53.160;17.920;2023-06-10T10:23:59;101145.77;;;25.29;32.15
79366;BME280;68833;53.160;17.920;2023-06-10T10:26:29;101152.03;;;25.32;30.96
79366;BME280;68833;53.160;17.920;2023-06-10T10:29:07;101150.26;;;25.32;30.38
79366;BME280;68833;53.160;17.920;2023-06-10T10:31:36;101154.10;;;25.28;29.90
79366;BME280;68833;53.160;17.920;2023-06-10T10:34:07;101151.99;;;25.24;30.34
79366;BME280;68833;53.160;17.920;2023-06-10T10:36:36;101150.11;;;25.29;31.22
79366;BME280;68833;53.160;17.920;2023-06-10T10:39:04;101150.64;;;25.37;30.82
79366;BME280;68833;53.160;17.920;2023-06-10T10:41:32;101147.61;;;25.43;30.15
79366;BME280;68833;53.160;17.920;2023-06-10T10:44:00;101145.80;;;25.46;30.13
79366;BME280;68833;53.160;17.920;2023-06-10T10:46:29;101142.48;;;25.53;30.15
79366;BME280;68833;53.160;17.920;2023-06-10T10:49:01;101143.01;;;25.58;29.87
79366;BME280;68833;53.160;17.920;2023-06-10T10:51:33;101139.27;;;25.61;29.42
79366;BME280;68833;53.160;17.920;2023-06-10T10:54:13;101138.52;;;25.62;29.80
79366;BME280;68833;53.160;17.920;2023-06-10T10:57:13;101139.34;;;25.62;29.98
79366;BME280;68833;53.160;17.920;2023-06-10T10:59:57;101143.73;;;25.59;29.50
79366;BME280;68833;53.160;17.920;2023-06-10T11:02:47;101136.48;;;25.57;29.96
79366;BME280;68833;53.160;17.920;2023-06-10T11:05:16;101146.46;;;25.64;29.75
79366;BME280;68833;53.160;17.920;2023-06-10T11:07:55;101143.13;;;25.70;29.67
79366;BME280;68833;53.160;17.920;2023-06-10T11:10:52;101142.64;;;25.78;29.64
79366;BME280;68833;53.160;17.920;2023-06-10T11:13:21;101138.41;;;25.88;28.80
79366;BME280;68833;53.160;17.920;2023-06-10T11:15:50;101128.53;;;25.87;28.82
79366;BME280;68833;53.160;17.920;2023-06-10T11:18:28;101127.98;;;25.93;29.08
79366;BME280;68833;53.160;17.920;2023-06-10T11:28:39;101137.81;;;26.13;27.43
79366;BME280;68833;53.160;17.920;2023-06-10T11:31:06;101132.16;;;26.12;27.68
79366;BME280;68833;53.160;17.920;2023-06-10T11:33:38;101128.58;;;26.17;27.81
79366;BME280;68833;53.160;17.920;2023-06-10T11:36:08;101132.12;;;26.26;27.23
79366;BME280;68833;53.160;17.920;2023-06-10T11:38:39;101131.37;;;26.29;27.30
79366;BME280;68833;53.160;17.920;2023-06-10T11:41:07;101132.66;;;26.31;26.93
79366;BME280;68833;53.160;17.920;2023-06-10T11:43:34;101127.33;;;26.33;26.99
79366;BME280;68833;53.160;17.920;2023-06-10T11:46:06;101119.80;;;26.42;27.01
79366;BME280;68833;53.160;17.920;2023-06-10T11:48:34;101118.30;;;26.49;26.13
79366;BME280;68833;53.160;17.920;2023-06-10T11:51:07;101120.50;;;26.53;26.54
79366;BME280;68833;53.160;17.920;2023-06-10T11:53:36;101118.52;;;26.58;26.21
79366;BME280;68833;53.160;17.920;2023-06-10T11:56:03;101116.23;;;26.60;25.95
79366;BME280;68833;53.160;17.920;2023-06-10T11:58:30;101123.31;;;26.62;26.15
79366;BME280;68833;53.160;17.920;2023-06-10T12:00:58;101117.71;;;26.67;25.75
79366;BME280;68833;53.160;17.920;2023-06-10T12:03:38;101116.14;;;26.64;25.55
79366;BME280;68833;53.160;17.920;2023-06-10T12:06:06;101123.92;;;26.61;24.94
79366;BME280;68833;53.160;17.920;2023-06-10T12:08:41;101126.64;;;26.58;24.57
79366;BME280;68833;53.160;17.920;2023-06-10T12:11:08;101124.52;;;26.52;24.08
79366;BME280;68833;53.160;17.920;2023-06-10T12:13:36;101125.54;;;26.46;24.40
79366;BME280;68833;53.160;17.920;2023-06-10T12:16:07;101117.63;;;26.42;24.43
79366;BME280;68833;53.160;17.920;2023-06-10T12:18:36;101121.83;;;26.44;24.81
79366;BME280;68833;53.160;17.920;2023-06-10T12:21:15;101124.60;;;26.46;24.61
79366;BME280;68833;53.160;17.920;2023-06-10T12:26:43;101107.70;;;26.46;25.06
79366;BME280;68833;53.160;17.920;2023-06-10T12:29:15;101112.65;;;26.52;25.13
79366;BME280;68833;53.160;17.920;2023-06-10T12:32:02;101109.41;;;26.52;25.15
79366;BME280;68833;53.160;17.920;2023-06-10T12:34:35;101112.94;;;26.53;24.87
79366;BME280;68833;53.160;17.920;2023-06-10T12:37:10;101113.46;;;26.51;24.87
79366;BME280;68833;53.160;17.920;2023-06-10T12:39:41;101121.61;;;26.50;24.12
79366;BME280;68833;53.160;17.920;2023-06-10T12:42:09;101110.24;;;26.43;24.25
79366;BME280;68833;53.160;17.920;2023-06-10T12:44:40;101111.95;;;26.44;23.89
79366;BME280;68833;53.160;17.920;2023-06-10T12:47:11;101111.43;;;26.41;23.60
79366;BME280;68833;53.160;17.920;2023-06-10T12:49:41;101119.41;;;26.43;23.25
79366;BME280;68833;53.160;17.920;2023-06-10T12:52:08;101107.84;;;26.43;23.33
79366;BME280;68833;53.160;17.920;2023-06-10T12:54:35;101108.38;;;26.47;23.19
79366;BME280;68833;53.160;17.920;2023-06-10T12:57:02;101114.81;;;26.50;23.00
79366;BME280;68833;53.160;17.920;2023-06-10T12:59:29;101112.08;;;26.53;22.66
79366;BME280;68833;53.160;17.920;2023-06-10T13:01:58;101111.62;;;26.52;22.54
79366;BME280;68833;53.160;17.920;2023-06-10T13:04:25;101106.42;;;26.51;21.88
79366;BME280;68833;53.160;17.920;2023-06-10T13:06:53;101104.22;;;26.52;22.07
79366;BME280;68833;53.160;17.920;2023-06-10T13:09:21;101095.14;;;26.50;22.48
79366;BME280;68833;53.160;17.920;2023-06-10T13:11:48;101092.23;;;26.51;22.55
79366;BME280;68833;53.160;17.920;2023-06-10T13:14:15;101095.89;;;26.50;22.52
79366;BME280;68833;53.160;17.920;2023-06-10T13:16:42;101091.05;;;26.44;22.04
79366;BME280;68833;53.160;17.920;2023-06-10T13:19:11;101099.45;;;26.34;22.05
79366;BME280;68833;53.160;17.920;2023-06-10T13:21:38;101092.58;;;26.32;22.17
79366;BME280;68833;53.160;17.920;2023-06-10T13:24:05;101089.47;;;26.31;22.16
79366;BME280;68833;53.160;17.920;2023-06-10T13:26:33;101088.61;;;26.27;22.13
79366;BME280;68833;53.160;17.920;2023-06-10T13:29:00;101087.83;;;26.20;22.03
79366;BME280;68833;53.160;17.920;2023-06-10T13:31:26;101085.60;;;26.14;21.92
79366;BME280;68833;53.160;17.920;2023-06-10T13:33:53;101096.35;;;26.09;21.70
79366;BME280;68833;53.160;17.920;2023-06-10T13:36:20;101087.51;;;26.04;21.32
79366;BME280;68833;53.160;17.920;2023-06-10T13:38:47;101081.92;;;26.01;21.27
79366;BME280;68833;53.160;17.920;2023-06-10T13:41:15;101088.45;;;26.00;21.65
79366;BME280;68833;53.160;17.920;2023-06-10T13:43:42;101080.02;;;25.99;21.79
79366;BME280;68833;53.160;17.920;2023-06-10T13:46:09;101083.49;;;25.96;21.54
79366;BME280;68833;53.160;17.920;2023-06-10T13:48:36;101083.80;;;25.91;21.68
79366;BME280;68833;53.160;17.920;2023-06-10T13:51:03;101083.40;;;25.87;21.68
79366;BME280;68833;53.160;17.920;2023-06-10T13:53:30;101084.10;;;25.82;21.32
79366;BME280;68833;53.160;17.920;2023-06-10T13:55:57;101078.91;;;25.76;21.30
79366;BME280;68833;53.160;17.920;2023-06-10T13:58:24;101076.31;;;25.71;21.28
79366;BME280;68833;53.160;17.920;2023-06-10T14:00:51;101078.99;;;25.72;21.74
79366;BME280;68833;53.160;17.920;2023-06-10T14:03:18;101077.45;;;25.73;22.04
79366;BME280;68833;53.160;17.920;2023-06-10T14:05:45;101078.61;;;25.75;22.41
79366;BME280;68833;53.160;17.920;2023-06-10T14:08:12;101080.94;;;25.78;22.57
79366;BME280;68833;53.160;17.920;2023-06-10T14:10:40;101083.35;;;25.79;22.53
79366;BME280;68833;53.160;17.920;2023-06-10T14:13:07;101081.71;;;25.80;22.87
79366;BME280;68833;53.160;17.920;2023-06-10T14:15:34;101082.47;;;25.79;23.19
79366;BME280;68833;53.160;17.920;2023-06-10T14:18:01;101082.05;;;25.85;23.26
79366;BME280;68833;53.160;17.920;2023-06-10T14:20:28;101082.97;;;25.88;23.37
79366;BME280;68833;53.160;17.920;2023-06-10T14:22:58;101088.18;;;25.85;23.14
79366;BME280;68833;53.160;17.920;2023-06-10T14:25:25;101083.11;;;25.80;22.97
79366;BME280;68833;53.160;17.920;2023-06-10T14:27:52;101083.20;;;25.76;23.31
79366;BME280;68833;53.160;17.920;2023-06-10T14:30:19;101084.58;;;25.72;22.60
79366;BME280;68833;53.160;17.920;2023-06-10T14:32:46;101082.17;;;25.59;22.55
79366;BME280;68833;53.160;17.920;2023-06-10T14:35:13;101083.41;;;25.49;22.79
79366;BME280;68833;53.160;17.920;2023-06-10T14:37:40;101081.59;;;25.43;23.12
79366;BME280;68833;53.160;17.920;2023-06-10T14:40:07;101077.63;;;25.38;23.16
79366;BME280;68833;53.160;17.920;2023-06-10T14:42:35;101074.59;;;25.35;23.59
79366;BME280;68833;53.160;17.920;2023-06-10T14:45:02;101072.23;;;25.37;23.29
79366;BME280;68833;53.160;17.920;2023-06-10T14:47:29;101071.45;;;25.39;23.60
79366;BME280;68833;53.160;17.920;2023-06-10T14:49:56;101077.88;;;25.36;23.69
79366;BME280;68833;53.160;17.920;2023-06-10T14:52:23;101075.35;;;25.34;23.60
79366;BME280;68833;53.160;17.920;2023-06-10T14:54:50;101078.70;;;25.32;23.88
79366;BME280;68833;53.160;17.920;2023-06-10T14:57:17;101074.27;;;25.31;24.23
79366;BME280;68833;53.160;17.920;2023-06-10T14:59:44;101072.89;;;25.33;24.04
79366;BME280;68833;53.160;17.920;2023-06-10T15:02:11;101079.44;;;25.31;24.12
79366;BME280;68833;53.160;17.920;2023-06-10T15:04:38;101079.02;;;25.27;24.10
79366;BME280;68833;53.160;17.920;2023-06-10T15:07:05;101077.27;;;25.23;24.04
79366;BME280;68833;53.160;17.920;2023-06-10T15:09:32;101077.19;;;25.16;24.11
79366;BME280;68833;53.160;17.920;2023-06-10T15:11:59;101078.92;;;25.12;24.20
79366;BME280;68833;53.160;17.920;2023-06-10T15:14:27;101078.91;;;25.12;24.55
79366;BME280;68833;53.160;17.920;2023-06-10T15:16:54;101081.64;;;25.14;24.57
79366;BME280;68833;53.160;17.920;2023-06-10T15:19:22;101081.91;;;25.13;24.11
79366;BME280;68833;53.160;17.920;2023-06-10T15:21:49;101082.81;;;25.07;24.24
79366;BME280;68833;53.160;17.920;2023-06-10T15:24:16;101080.95;;;25.02;24.43
79366;BME280;68833;53.160;17.920;2023-06-10T15:26:43;101077.20;;;24.99;24.19
79366;BME280;68833;53.160;17.920;2023-06-10T15:29:10;101082.23;;;24.96;24.10
79366;BME280;68833;53.160;17.920;2023-06-10T15:31:37;101075.86;;;24.92;24.18
79366;BME280;68833;53.160;17.920;2023-06-10T15:34:04;101076.50;;;24.90;24.28
79366;BME280;68833;53.160;17.920;2023-06-10T15:36:33;101082.48;;;24.89;24.49
79366;BME280;68833;53.160;17.920;2023-06-10T15:39:04;101079.59;;;24.87;24.37
79366;BME280;68833;53.160;17.920;2023-06-10T15:41:33;101080.27;;;24.87;24.29
79366;BME280;68833;53.160;17.920;2023-06-10T15:44:01;101084.51;;;24.83;23.94
79366;BME280;68833;53.160;17.920;2023-06-10T15:46:29;101084.23;;;24.75;23.83
79366;BME280;68833;53.160;17.920;2023-06-10T15:48:56;101080.93;;;24.68;23.81
79366;BME280;68833;53.160;17.920;2023-06-10T15:51:24;101080.72;;;24.62;23.94
79366;BME280;68833;53.160;17.920;2023-06-10T15:53:51;101082.95;;;24.58;24.02
79366;BME280;68833;53.160;17.920;2023-06-10T15:56:18;101086.34;;;24.53;23.81
79366;BME280;68833;53.160;17.920;2023-06-10T15:58:45;101087.11;;;24.49;24.00
79366;BME280;68833;53.160;17.920;2023-06-10T16:03:35;101084.67;;;24.38;23.89
79366;BME280;68833;53.160;17.920;2023-06-10T16:06:02;101082.92;;;24.32;23.89
79366;BME280;68833;53.160;17.920;2023-06-10T16:08:29;101080.14;;;24.28;24.07
79366;BME280;68833;53.160;17.920;2023-06-10T16:10:56;101083.73;;;24.25;24.47
79366;BME280;68833;53.160;17.920;2023-06-10T16:13:24;101085.01;;;24.21;24.46
79366;BME280;68833;53.160;17.920;2023-06-10T16:15:51;101084.77;;;24.16;24.21
79366;BME280;68833;53.160;17.920;2023-06-10T16:18:18;101089.67;;;24.09;24.02
79366;BME280;68833;53.160;17.920;2023-06-10T16:20:45;101090.17;;;24.01;23.77
79366;BME280;68833;53.160;17.920;2023-06-10T16:23:12;101093.84;;;23.93;23.81
79366;BME280;68833;53.160;17.920;2023-06-10T16:25:38;101088.03;;;23.88;23.95
79366;BME280;68833;53.160;17.920;2023-06-10T16:28:06;101095.61;;;23.84;24.39
79366;BME280;68833;53.160;17.920;2023-06-10T16:30:33;101100.54;;;23.79;25.09
79366;BME280;68833;53.160;17.920;2023-06-10T16:33:00;101107.11;;;23.74;26.03
79366;BME280;68833;53.160;17.920;2023-06-10T16:35:27;101111.59;;;23.68;27.05
79366;BME280;68833;53.160;17.920;2023-06-10T16:37:55;101117.19;;;23.61;27.74
79366;BME280;68833;53.160;17.920;2023-06-10T16:40:22;101121.36;;;23.54;28.18
79366;BME280;68833;53.160;17.920;2023-06-10T16:42:49;101117.83;;;23.46;28.48
79366;BME280;68833;53.160;17.920;2023-06-10T16:45:16;101120.67;;;23.40;28.89
79366;BME280;68833;53.160;17.920;2023-06-10T16:47:43;101115.91;;;23.32;29.32
79366;BME280;68833;53.160;17.920;2023-06-10T16:50:10;101117.59;;;23.25;29.68
79366;BME280;68833;53.160;17.920;2023-06-10T16:52:37;101118.14;;;23.18;30.06
79366;BME280;68833;53.160;17.920;2023-06-10T16:55:04;101116.98;;;23.13;30.18
79366;BME280;68833;53.160;17.920;2023-06-10T16:57:31;101123.00;;;23.07;30.30
79366;BME280;68833;53.160;17.920;2023-06-10T16:59:58;101122.86;;;23.00;30.61
79366;BME280;68833;53.160;17.920;2023-06-10T17:02:25;101122.98;;;22.91;30.61
79366;BME280;68833;53.160;17.920;2023-06-10T17:04:53;101130.54;;;22.84;30.68
79366;BME280;68833;53.160;17.920;2023-06-10T17:07:20;101134.83;;;22.77;30.86
79366;BME280;68833;53.160;17.920;2023-06-10T17:09:47;101133.02;;;22.73;31.09
79366;BME280;68833;53.160;17.920;2023-06-10T17:12:14;101137.77;;;22.69;31.11
79366;BME280;68833;53.160;17.920;2023-06-10T17:14:41;101137.50;;;22.64;31.14
79366;BME280;68833;53.160;17.920;2023-06-10T17:17:08;101132.66;;;22.57;31.12
79366;BME280;68833;53.160;17.920;2023-06-10T17:19:35;101138.99;;;22.52;31.20
79366;BME280;68833;53.160;17.920;2023-06-10T17:22:02;101138.95;;;22.46;31.22
79366;BME280;68833;53.160;17.920;2023-06-10T17:24:29;101140.39;;;22.39;31.10
79366;BME280;68833;53.160;17.920;2023-06-10T17:26:56;101138.84;;;22.34;31.27
79366;BME280;68833;53.160;17.920;2023-06-10T17:29:23;101142.83;;;22.29;31.54
79366;BME280;68833;53.160;17.920;2023-06-10T17:31:50;101146.09;;;22.25;31.64
79366;BME280;68833;53.160;17.920;2023-06-10T17:34:17;101148.63;;;22.20;31.45
79366;BME280;68833;53.160;17.920;2023-06-10T17:36:44;101149.45;;;22.15;31.56
79366;BME280;68833;53.160;17.920;2023-06-10T17:39:11;101150.23;;;22.10;31.68
79366;BME280;68833;53.160;17.920;2023-06-10T17:41:38;101151.98;;;22.07;31.93
79366;BME280;68833;53.160;17.920;2023-06-10T17:44:05;101151.67;;;22.02;32.03
79366;BME280;68833;53.160;17.920;2023-06-10T17:46:32;101154.86;;;21.99;32.34
79366;BME280;68833;53.160;17.920;2023-06-10T17:48:59;101150.78;;;21.95;32.11
79366;BME280;68833;53.160;17.920;2023-06-10T17:51:26;101151.55;;;21.90;32.27
79366;BME280;68833;53.160;17.920;2023-06-10T17:53:53;101154.80;;;21.86;32.56
79366;BME280;68833;53.160;17.920;2023-06-10T17:56:20;101155.98;;;21.83;32.51
79366;BME280;68833;53.160;17.920;2023-06-10T17:58:47;101160.50;;;21.79;32.55
79366;BME280;68833;53.160;17.920;2023-06-10T18:01:14;101166.33;;;21.73;32.69
79366;BME280;68833;53.160;17.920;2023-06-10T18:03:41;101161.69;;;21.65;32.33
79366;BME280;68833;53.160;17.920;2023-06-10T18:06:09;101159.98;;;21.60;32.39
79366;BME280;68833;53.160;17.920;2023-06-10T18:08:36;101165.02;;;21.56;32.29
79366;BME280;68833;53.160;17.920;2023-06-10T18:11:02;101170.49;;;21.53;32.57
79366;BME280;68833;53.160;17.920;2023-06-10T18:13:31;101169.75;;;21.49;32.75
79366;BME280;68833;53.160;17.920;2023-06-10T18:15:58;101172.33;;;21.44;33.08
79366;BME280;68833;53.160;17.920;2023-06-10T18:18:27;101177.20;;;21.39;33.06
79366;BME280;68833;53.160;17.920;2023-06-10T18:20:54;101179.65;;;21.32;33.23
79366;BME280;68833;53.160;17.920;2023-06-10T18:23:21;101183.98;;;21.28;33.25
79366;BME280;68833;53.160;17.920;2023-06-10T18:25:48;101185.10;;;21.22;33.28
79366;BME280;68833;53.160;17.920;2023-06-10T18:28:16;101186.08;;;21.17;33.21
79366;BME280;68833;53.160;17.920;2023-06-10T18:30:43;101187.40;;;21.11;33.69
79366;BME280;68833;53.160;17.920;2023-06-10T18:33:10;101191.55;;;21.06;33.65
79366;BME280;68833;53.160;17.920;2023-06-10T18:35:37;101188.89;;;20.98;33.92
79366;BME280;68833;53.160;17.920;2023-06-10T18:38:05;101194.05;;;20.90;34.03
79366;BME280;68833;53.160;17.920;2023-06-10T18:40:32;101192.27;;;20.82;34.14
79366;BME280;68833;53.160;17.920;2023-06-10T18:42:59;101194.81;;;20.77;34.31
79366;BME280;68833;53.160;17.920;2023-06-10T18:45:26;101197.03;;;20.71;34.17
79366;BME280;68833;53.160;17.920;2023-06-10T18:47:53;101204.01;;;20.66;34.43
79366;BME280;68833;53.160;17.920;2023-06-10T18:50:20;101204.44;;;20.60;34.43
79366;BME280;68833;53.160;17.920;2023-06-10T18:52:47;101208.17;;;20.52;34.88
79366;BME280;68833;53.160;17.920;2023-06-10T18:55:14;101207.86;;;20.46;34.67
79366;BME280;68833;53.160;17.920;2023-06-10T18:57:41;101208.45;;;20.41;35.11
79366;BME280;68833;53.160;17.920;2023-06-10T19:00:09;101214.07;;;20.34;35.12
79366;BME280;68833;53.160;17.920;2023-06-10T19:02:36;101213.06;;;20.28;35.34
79366;BME280;68833;53.160;17.920;2023-06-10T19:05:04;101212.96;;;20.22;35.49
79366;BME280;68833;53.160;17.920;2023-06-10T19:07:35;101225.48;;;20.17;35.70
79366;BME280;68833;53.160;17.920;2023-06-10T19:10:02;101225.47;;;20.13;36.04
79366;BME280;68833;53.160;17.920;2023-06-10T19:12:29;101227.65;;;20.07;36.02
79366;BME280;68833;53.160;17.920;2023-06-10T19:14:56;101231.60;;;20.02;36.18
79366;BME280;68833;53.160;17.920;2023-06-10T19:17:24;101236.98;;;19.97;36.33
79366;BME280;68833;53.160;17.920;2023-06-10T19:19:51;101239.88;;;19.91;36.45
79366;BME280;68833;53.160;17.920;2023-06-10T19:22:18;101240.31;;;19.84;36.68
79366;BME280;68833;53.160;17.920;2023-06-10T19:24:57;101244.77;;;19.80;36.88
79366;BME280;68833;53.160;17.920;2023-06-10T19:27:24;101242.89;;;19.73;37.05
79366;BME280;68833;53.160;17.920;2023-06-10T19:29:51;101243.96;;;19.67;37.09
79366;BME280;68833;53.160;17.920;2023-06-10T19:32:18;101245.56;;;19.63;37.42
79366;BME280;68833;53.160;17.920;2023-06-10T19:34:45;101245.61;;;19.57;37.56
79366;BME280;68833;53.160;17.920;2023-06-10T19:37:12;101249.16;;;19.53;37.77
79366;BME280;68833;53.160;17.920;2023-06-10T19:39:39;101246.89;;;19.47;37.96
79366;BME280;68833;53.160;17.920;2023-06-10T19:42:06;101250.13;;;19.41;38.04
79366;BME280;68833;53.160;17.920;2023-06-10T19:44:34;101250.54;;;19.34;38.32
79366;BME280;68833;53.160;17.920;2023-06-10T19:47:01;101249.10;;;19.30;38.32
79366;BME280;68833;53.160;17.920;2023-06-10T19:49:28;101251.23;;;19.25;38.55
79366;BME280;68833;53.160;17.920;2023-06-10T19:51:55;101254.46;;;19.20;38.73
79366;BME280;68833;53.160;17.920;2023-06-10T19:54:22;101250.44;;;19.13;38.98
79366;BME280;68833;53.160;17.920;2023-06-10T19:56:49;101255.19;;;19.10;39.19
79366;BME280;68833;53.160;17.920;2023-06-10T19:59:16;101254.48;;;19.04;39.51
79366;BME280;68833;53.160;17.920;2023-06-10T20:01:43;101258.18;;;19.00;39.57
79366;BME280;68833;53.160;17.920;2023-06-10T20:04:10;101263.70;;;18.95;39.60
79366;BME280;68833;53.160;17.920;2023-06-10T20:06:38;101264.55;;;18.91;39.57
79366;BME280;68833;53.160;17.920;2023-06-10T20:09:05;101270.70;;;18.88;39.95
79366;BME280;68833;53.160;17.920;2023-06-10T20:11:32;101267.73;;;18.85;40.13
79366;BME280;68833;53.160;17.920;2023-06-10T20:13:59;101271.66;;;18.80;40.15
79366;BME280;68833;53.160;17.920;2023-06-10T20:16:26;101268.46;;;18.75;40.17
79366;BME280;68833;53.160;17.920;2023-06-10T20:18:53;101268.43;;;18.70;40.62
79366;BME280;68833;53.160;17.920;2023-06-10T20:21:21;101268.64;;;18.64;40.61
79366;BME280;68833;53.160;17.920;2023-06-10T20:23:48;101267.69;;;18.60;41.06
79366;BME280;68833;53.160;17.920;2023-06-10T20:26:15;101272.02;;;18.58;40.55
79366;BME280;68833;53.160;17.920;2023-06-10T20:28:42;101276.78;;;18.54;41.12
79366;BME280;68833;53.160;17.920;2023-06-10T20:31:09;101279.96;;;18.50;41.09
79366;BME280;68833;53.160;17.920;2023-06-10T20:33:37;101278.13;;;18.46;41.33
79366;BME280;68833;53.160;17.920;2023-06-10T20:36:04;101277.52;;;18.43;41.39
79366;BME280;68833;53.160;17.920;2023-06-10T20:38:31;101281.55;;;18.39;41.65
79366;BME280;68833;53.160;17.920;2023-06-10T20:40:58;101279.91;;;18.34;41.68
79366;BME280;68833;53.160;17.920;2023-06-10T20:43:26;101279.69;;;18.30;41.94
79366;BME280;68833;53.160;17.920;2023-06-10T20:45:53;101277.95;;;18.23;41.89
79366;BME280;68833;53.160;17.920;2023-06-10T20:48:20;101279.52;;;18.18;41.84
79366;BME280;68833;53.160;17.920;2023-06-10T20:50:47;101282.69;;;18.14;42.26
79366;BME280;68833;53.160;17.920;2023-06-10T20:53:14;101280.35;;;18.09;42.01
79366;BME280;68833;53.160;17.920;2023-06-10T20:55:42;101280.98;;;18.06;42.30
79366;BME280;68833;53.160;17.920;2023-06-10T20:58:09;101281.05;;;18.03;42.12
79366;BME280;68833;53.160;17.920;2023-06-10T21:00:36;101281.51;;;18.00;42.68
79366;BME280;68833;53.160;17.920;2023-06-10T21:03:03;101285.48;;;17.98;42.54
79366;BME280;68833;53.160;17.920;2023-06-10T21:05:31;101285.20;;;17.96;42.71
79366;BME280;68833;53.160;17.920;2023-06-10T21:07:58;101284.72;;;17.94;42.68
79366;BME280;68833;53.160;17.920;2023-06-10T21:10:25;101286.13;;;17.87;42.83
79366;BME280;68833;53.160;17.920;2023-06-10T21:12:53;101286.39;;;17.84;43.02
79366;BME280;68833;53.160;17.920;2023-06-10T21:15:20;101288.98;;;17.81;43.02
79366;BME280;68833;53.160;17.920;2023-06-10T21:17:47;101286.27;;;17.77;42.96
79366;BME280;68833;53.160;17.920;2023-06-10T21:20:14;101293.82;;;17.73;43.03
79366;BME280;68833;53.160;17.920;2023-06-10T21:22:41;101293.42;;;17.69;42.97
79366;BME280;68833;53.160;17.920;2023-06-10T21:25:09;101295.34;;;17.64;43.27
79366;BME280;68833;53.160;17.920;2023-06-10T21:27:36;101301.48;;;17.60;43.29
79366;BME280;68833;53.160;17.920;2023-06-10T21:30:03;101302.65;;;17.57;43.58
79366;BME280;68833;53.160;17.920;2023-06-10T21:32:31;101305.58;;;17.54;43.27
79366;BME280;68833;53.160;17.920;2023-06-10T21:34:58;101306.91;;;17.50;43.63
79366;BME280;68833;53.160;17.920;2023-06-10T21:37:25;101305.41;;;17.46;43.75
79366;BME280;68833;53.160;17.920;2023-06-10T21:39:52;101304.45;;;17.43;43.88
79366;BME280;68833;53.160;17.920;2023-06-10T21:42:19;101307.09;;;17.37;44.05
79366;BME280;68833;53.160;17.920;2023-06-10T21:44:46;101305.69;;;17.30;44.12
79366;BME280;68833;53.160;17.920;2023-06-10T21:47:13;101306.11;;;17.27;44.35
79366;BME280;68833;53.160;17.920;2023-06-10T21:49:40;101305.11;;;17.25;44.15
79366;BME280;68833;53.160;17.920;2023-06-10T21:52:07;101306.11;;;17.21;44.23
79366;BME280;68833;53.160;17.920;2023-06-10T21:54:34;101306.40;;;17.17;44.23
79366;BME280;68833;53.160;17.920;2023-06-10T21:57:02;101306.83;;;17.14;44.38
79366;BME280;68833;53.160;17.920;2023-06-10T21:59:29;101307.59;;;17.12;44.39
79366;BME280;68833;53.160;17.920;2023-06-10T22:01:58;101308.54;;;17.10;44.52
79366;BME280;68833;53.160;17.920;2023-06-10T22:04:25;101305.38;;;17.08;44.54
79366;BME280;68833;53.160;17.920;2023-06-10T22:08:56;101309.34;;;17.06;44.77
79366;BME280;68833;53.160;17.920;2023-06-10T22:11:23;101311.42;;;17.01;44.50
79366;BME280;68833;53.160;17.920;2023-06-10T22:13:50;101311.09;;;17.00;44.73
79366;BME280;68833;53.160;17.920;2023-06-10T22:16:16;101311.46;;;16.99;44.83
79366;BME280;68833;53.160;17.920;2023-06-10T22:18:43;101311.66;;;16.99;44.60
79366;BME280;68833;53.160;17.920;2023-06-10T22:21:10;101308.30;;;16.98;44.78
79366;BME280;68833;53.160;17.920;2023-06-10T22:23:36;101309.30;;;16.94;44.65
79366;BME280;68833;53.160;17.920;2023-06-10T22:26:03;101309.95;;;16.88;44.87
79366;BME280;68833;53.160;17.920;2023-06-10T22:28:30;101307.91;;;16.84;44.69